createdAt,value
2018-06-11T00:04:48.034Z,95135.9
2018-06-11T00:09:45.054Z,95127.5
2018-06-11T00:14:41.626Z,95050.7
2018-06-11T00:19:38.458Z,95047.8
2018-06-11T00:24:35.110Z,95049
2018-06-11T00:29:31.795Z,95078.9
2018-06-11T00:34:28.213Z,95140.9
2018-06-11T00:39:24.868Z,95134
2018-06-11T00:44:22.032Z,95058.5
2018-06-11T00:49:18.595Z,95061.8
2018-06-11T00:54:15.211Z,95060.6
2018-06-11T00:59:11.689Z,95052.4
2018-06-11T01:04:08.462Z,95127.5
2018-06-11T01:09:05.011Z,95046.3
2018-06-11T01:14:01.243Z,95116.6
2018-06-11T01:18:58.083Z,95032.5
2018-06-11T01:23:54.621Z,95028.9
2018-06-11T01:28:51.393Z,95034.2
2018-06-11T01:33:48.273Z,95038.8
2018-06-11T01:38:45.140Z,95044.2
2018-06-11T01:43:41.662Z,95035.2
2018-06-11T01:48:38.215Z,95117.2
2018-06-11T01:53:34.325Z,95030.4
2018-06-11T01:58:31.163Z,95122.2
2018-06-11T02:03:27.259Z,95032.9
2018-06-11T02:08:23.797Z,95037.5
2018-06-11T02:13:20.446Z,95045.1
2018-06-11T02:18:17.334Z,95134
2018-06-11T02:23:13.684Z,95053.1
2018-06-11T02:28:10.236Z,95051.4
2018-06-11T02:33:06.700Z,95053.3
2018-06-11T02:38:03.226Z,95140.1
2018-06-11T02:42:59.904Z,95135
2018-06-11T02:47:56.807Z,95137.1
2018-06-11T02:52:53.651Z,95141.8
2018-06-11T02:57:51.303Z,95149.7
2018-06-11T03:02:47.821Z,95066.6
2018-06-11T03:07:44.506Z,95075.4
2018-06-11T03:12:41.470Z,95160.9
2018-06-11T03:17:38.183Z,95049
2018-06-11T03:22:34.798Z,95086.5
2018-06-11T03:27:31.633Z,95170.5
2018-06-11T03:32:28.246Z,95169.7
2018-06-11T03:37:25.378Z,95143.8
2018-06-11T03:42:21.958Z,95172.3
2018-06-11T03:47:18.765Z,95175.2
2018-06-11T03:52:15.955Z,95186.9
2018-06-11T03:57:12.406Z,95105.3
2018-06-11T04:02:09.308Z,95224.5
2018-06-11T04:07:06.110Z,95195.5
2018-06-11T04:12:02.814Z,95121.9
2018-06-11T04:16:59.814Z,95212.1
2018-06-11T04:21:56.417Z,95200.3
2018-06-11T04:26:52.806Z,95115.4
2018-06-11T04:31:49.699Z,95207.5
2018-06-11T04:36:46.373Z,95122.5
2018-06-11T04:41:42.503Z,95129.4
2018-06-11T04:46:39.121Z,95128.9
2018-06-11T04:51:35.765Z,95131
2018-06-11T04:56:32.306Z,95131.5
2018-06-11T05:01:30.004Z,95137.5
2018-06-11T05:06:25.741Z,95145.3
2018-06-11T05:11:22.111Z,95228.4
2018-06-11T05:16:18.548Z,95143.4
2018-06-11T05:21:14.483Z,95145.7
2018-06-11T05:26:11.132Z,95237.6
2018-06-11T05:31:07.744Z,95159.9
2018-06-11T05:36:04.295Z,95249.5
2018-06-11T05:41:00.826Z,95168.5
2018-06-11T05:45:57.399Z,95176.3
2018-06-11T05:50:54.019Z,95179
2018-06-11T05:55:50.538Z,95187.4
2018-06-11T06:00:47.268Z,95176.1
2018-06-11T06:05:43.680Z,95261.9
2018-06-11T06:10:40.501Z,95265.6
2018-06-11T06:15:36.972Z,95173.9
2018-06-11T06:20:33.608Z,95127.4
2018-06-11T06:25:30.327Z,95177.6
2018-06-11T06:30:26.847Z,95148.7
2018-06-11T06:35:23.585Z,95167.9
2018-06-11T06:40:20.112Z,95252.2
2018-06-11T06:45:16.968Z,95251.5
2018-06-11T06:50:13.554Z,95159.3
2018-06-11T06:55:10.282Z,95240
2018-06-11T07:00:06.889Z,95236.7
2018-06-11T07:05:03.172Z,95155.2
2018-06-11T07:09:59.745Z,95226.6
2018-06-11T07:14:56.116Z,95143.5
2018-06-11T07:19:52.639Z,95141
2018-06-11T07:24:49.548Z,95224.8
2018-06-11T07:29:46.155Z,95221.5
2018-06-11T07:34:42.611Z,95140.7
2018-06-11T07:39:39.286Z,95133.2
2018-06-11T07:44:36.038Z,95211.3
2018-06-11T07:49:32.688Z,95126.6
2018-06-11T07:54:29.275Z,95203.4
2018-06-11T07:59:25.966Z,95114.7
2018-06-11T08:04:22.511Z,95205.6
2018-06-11T08:09:18.497Z,95128
2018-06-11T08:14:15.450Z,95121.1
2018-06-11T08:19:12.053Z,95113.8
2018-06-11T08:24:08.816Z,95196.4
2018-06-11T08:29:05.594Z,95116.2
2018-06-11T08:34:01.637Z,95193.4
2018-06-11T08:38:58.251Z,95187.6
2018-06-11T08:43:55.023Z,95187.3
2018-06-11T08:48:51.793Z,95109.5
2018-06-11T08:53:50.605Z,95189.2
2018-06-11T08:58:46.839Z,95187.2
2018-06-11T09:03:43.420Z,95188.3
2018-06-11T09:08:39.771Z,95112
2018-06-11T09:13:36.482Z,95190.6
2018-06-11T09:18:33.343Z,95184.5
2018-06-11T09:23:30.194Z,95182.5
2018-06-11T09:28:28.265Z,95187.3
2018-06-11T09:33:25.313Z,95244.1
2018-06-11T09:38:21.928Z,95175.1
2018-06-11T09:43:18.844Z,95177.9
2018-06-11T09:48:19.657Z,95173.2
2018-06-11T09:53:15.151Z,95101
2018-06-11T09:58:11.937Z,95166.3
2018-06-11T10:03:08.704Z,95166.1
2018-06-11T10:08:06.250Z,95115.6
2018-06-11T10:13:02.284Z,95157.2
2018-06-11T10:17:59.046Z,95074.1
2018-06-11T10:22:55.720Z,95144.5
2018-06-11T10:27:52.670Z,95064.7
2018-06-11T10:32:49.663Z,95141.7
2018-06-11T10:37:46.427Z,95054
2018-06-11T10:42:43.306Z,95137.6
2018-06-11T10:47:40.172Z,95133.1
2018-06-11T10:52:36.946Z,95124.3
2018-06-11T10:57:33.772Z,95120.4
2018-06-11T11:02:30.625Z,95042.7
2018-06-11T11:07:27.515Z,95110
2018-06-11T11:12:24.354Z,95041.5
2018-06-11T11:17:20.591Z,95022.8
2018-06-11T11:22:17.292Z,95091.8
2018-06-11T11:27:26.583Z,95032
2018-06-11T11:32:31.622Z,95022.8
2018-06-11T11:37:36.496Z,95087.7
2018-06-11T11:42:28.713Z,95077.1
2018-06-11T11:47:25.767Z,95074.2
2018-06-11T11:52:22.514Z,95076.7
2018-06-11T11:57:19.909Z,95001.4
2018-06-11T12:02:16.609Z,95001.6
2018-06-11T12:07:13.628Z,95054.4
2018-06-11T12:12:10.701Z,95058.2
2018-06-11T12:17:07.679Z,95052.9
2018-06-11T12:22:04.507Z,95042.9
2018-06-11T12:27:01.584Z,95052.5
2018-06-11T12:31:58.512Z,95049.8
2018-06-11T12:36:55.269Z,95049
2018-06-11T12:41:51.947Z,95096.9
2018-06-11T12:46:48.759Z,95053.1
2018-06-11T12:51:45.555Z,95029.5
2018-06-11T12:56:42.623Z,95074.6
2018-06-11T13:01:39.625Z,95005.1
2018-06-11T13:06:36.261Z,95063.3
2018-06-11T13:11:34.658Z,95009
2018-06-11T13:16:30.956Z,94932.1
2018-06-11T13:21:28.090Z,94926.6
2018-06-11T13:26:24.668Z,94998.7
2018-06-11T13:31:21.204Z,94920.1
2018-06-11T13:36:17.613Z,94918.3
2018-06-11T13:41:14.265Z,94909.3
2018-06-11T13:46:10.678Z,94906.8
2018-06-11T13:51:07.299Z,94908.7
2018-06-11T13:56:03.721Z,94972.4
2018-06-11T14:01:00.184Z,94964
2018-06-11T14:05:56.987Z,94981.9
2018-06-11T14:10:53.699Z,94987.6
2018-06-11T14:15:50.433Z,94987.1
2018-06-11T14:20:47.325Z,94985.2
2018-06-11T14:25:43.922Z,94984.2
2018-06-11T14:30:40.662Z,94983.2
2018-06-11T14:35:37.987Z,94970.7
2018-06-11T14:40:34.620Z,94966.5
2018-06-11T14:45:31.026Z,94965
2018-06-11T14:50:27.684Z,94960.3
2018-06-11T14:55:24.539Z,94954.7
2018-06-11T15:00:21.165Z,94943.7
2018-06-11T15:05:17.712Z,94945.4
2018-06-11T15:10:14.507Z,94941
2018-06-11T15:15:10.799Z,94946.2
2018-06-11T15:20:07.484Z,94944.9
2018-06-11T15:25:03.969Z,94953.6
2018-06-11T15:30:00.978Z,94881.6
2018-06-11T15:34:57.532Z,94968.2
2018-06-11T15:39:54.437Z,94956.6
2018-06-11T15:44:51.241Z,94963.5
2018-06-11T15:49:48.235Z,94952.2
2018-06-11T15:54:44.970Z,94955
2018-06-11T15:59:41.402Z,94875
2018-06-11T16:04:38.131Z,94952.7
2018-06-11T16:09:35.168Z,94961.8
2018-06-11T16:14:31.635Z,94952.5
2018-06-11T16:19:28.247Z,94852
2018-06-11T16:24:24.737Z,94966.4
2018-06-11T16:29:21.715Z,94953.4
2018-06-11T16:34:18.326Z,94970.9
2018-06-11T16:39:15.338Z,94968.9
2018-06-11T16:44:11.904Z,94885.9
2018-06-11T16:49:08.650Z,94899.6
2018-06-11T16:54:05.163Z,94896.9
2018-06-11T16:59:02.232Z,94900.5
2018-06-11T17:03:58.729Z,94966
2018-06-11T17:08:55.526Z,94976.3
2018-06-11T17:13:52.090Z,94978.5
2018-06-11T17:18:48.583Z,94969.2
2018-06-11T17:23:45.123Z,94897.1
2018-06-11T17:28:41.758Z,94887.9
2018-06-11T17:33:38.349Z,94862.6
2018-06-11T17:38:34.871Z,94887.3
2018-06-11T17:43:31.514Z,94897.2
2018-06-11T17:48:28.022Z,94970.8
2018-06-11T17:53:24.636Z,94896.7
2018-06-11T17:58:21.047Z,94985.9
2018-06-11T18:03:17.951Z,94900
2018-06-11T18:08:15.704Z,94914.5
2018-06-11T18:13:11.985Z,94996.2
2018-06-11T18:18:08.613Z,95006.3
2018-06-11T18:23:05.591Z,95014.8
2018-06-11T18:28:02.519Z,95023
2018-06-11T18:32:59.408Z,95026.4
2018-06-11T18:37:56.144Z,94960.1
2018-06-11T18:42:52.920Z,95044.8
2018-06-11T18:47:49.293Z,95046.9
2018-06-11T18:52:46.010Z,95052.6
2018-06-11T18:57:42.911Z,95057.6
2018-06-11T19:02:39.594Z,94989.8
2018-06-11T19:07:36.231Z,95065.1
2018-06-11T19:12:33.144Z,95068.9
2018-06-11T19:17:30.019Z,94999.1
2018-06-11T19:22:26.678Z,95095.7
2018-06-11T19:27:23.316Z,95074.2
2018-06-11T19:32:20.325Z,95145.3
2018-06-11T19:37:17.145Z,95008.8
2018-06-11T19:42:13.689Z,95152.4
2018-06-11T19:47:10.316Z,95075
2018-06-11T19:52:07.741Z,95079.2
2018-06-11T19:57:04.300Z,95072.4
2018-06-11T20:02:01.702Z,95067.5
2018-06-11T20:06:58.305Z,94989.9
2018-06-11T20:11:55.508Z,95071.1
2018-06-11T20:16:51.872Z,95069.7
2018-06-11T20:21:48.492Z,95020
2018-06-11T20:26:45.877Z,95063.7
2018-06-11T20:31:43.639Z,95072.2
2018-06-11T20:36:39.986Z,94993.1
2018-06-11T20:41:36.709Z,94991
2018-06-11T20:46:33.080Z,95076.3
2018-06-11T20:51:29.987Z,95077.8
2018-06-11T20:56:26.411Z,94972.7
2018-06-11T21:01:22.900Z,94988.4
2018-06-11T21:06:19.705Z,95047.5
2018-06-11T21:11:16.057Z,95076
2018-06-11T21:16:12.960Z,95077.2
2018-06-11T21:21:09.524Z,95034.7
2018-06-11T21:26:06.854Z,94996.8
2018-06-11T21:31:03.544Z,95096.4
2018-06-11T21:36:00.522Z,95011.2
2018-06-11T21:40:57.037Z,95098.5
2018-06-11T21:45:53.558Z,95102.6
2018-06-11T21:50:50.023Z,95099
2018-06-11T21:55:46.781Z,95091.8
2018-06-11T22:00:43.438Z,95156.3
2018-06-11T22:05:40.019Z,95078
2018-06-11T22:10:36.634Z,95082.5
2018-06-11T22:15:33.510Z,95113.1
2018-06-11T22:20:30.339Z,95076.3
2018-06-11T22:25:26.698Z,95075
2018-06-11T22:30:23.228Z,95042.8
2018-06-11T22:35:20.242Z,95073.6
2018-06-11T22:40:16.906Z,95083.1
2018-06-11T22:45:13.479Z,95080.1
2018-06-11T22:50:10.049Z,95073.8
2018-06-11T22:55:06.891Z,95093
2018-06-11T23:00:03.499Z,95078.2
2018-06-11T23:05:00.338Z,95082.3
2018-06-11T23:09:57.037Z,94990.6
2018-06-11T23:14:53.906Z,95073.2
2018-06-11T23:19:50.370Z,94979.8
2018-06-11T23:24:47.173Z,95063.3
2018-06-11T23:29:43.866Z,95068.2
2018-06-11T23:34:40.243Z,95066.3
2018-06-11T23:39:37.026Z,94986.9
2018-06-11T23:44:33.766Z,94976.2
2018-06-11T23:49:30.824Z,94979.5
2018-06-11T23:54:27.298Z,95057.7
2018-06-11T23:59:24.036Z,95131.3
